sensor_id;sensor_type;location;lat;lon;timestamp;P1;durP1;ratioP1;P2;durP2;ratioP2
23155;SDS011;11746;50.876;4.246;2022-11-04T00:00:07;4.15;;;1.83;;
23155;SDS011;11746;50.876;4.246;2022-11-04T00:02:34;3.30;;;1.60;;
23155;SDS011;11746;50.876;4.246;2022-11-04T00:05:00;5.57;;;2.10;;
23155;SDS011;11746;50.876;4.246;2022-11-04T00:07:28;7.20;;;2.22;;
23155;SDS011;11746;50.876;4.246;2022-11-04T00:10:12;5.95;;;2.13;;
23155;SDS011;11746;50.876;4.246;2022-11-04T00:12:38;3.80;;;1.60;;
23155;SDS011;11746;50.876;4.246;2022-11-04T00:15:04;5.05;;;1.40;;
23155;SDS011;11746;50.876;4.246;2022-11-04T00:17:49;7.85;;;1.40;;
23155;SDS011;11746;50.876;4.246;2022-11-04T00:20:15;5.45;;;1.42;;
23155;SDS011;11746;50.876;4.246;2022-11-04T00:23:01;7.40;;;1.40;;
23155;SDS011;11746;50.876;4.246;2022-11-04T00:25:45;4.67;;;1.37;;
23155;SDS011;11746;50.876;4.246;2022-11-04T00:28:32;4.50;;;1.38;;
23155;SDS011;11746;50.876;4.246;2022-11-04T00:31:07;6.07;;;1.60;;
23155;SDS011;11746;50.876;4.246;2022-11-04T00:36:19;2.47;;;1.02;;
23155;SDS011;11746;50.876;4.246;2022-11-04T00:38:45;2.45;;;0.80;;
23155;SDS011;11746;50.876;4.246;2022-11-04T00:41:11;5.40;;;1.10;;
23155;SDS011;11746;50.876;4.246;2022-11-04T00:43:54;2.95;;;1.10;;
23155;SDS011;11746;50.876;4.246;2022-11-04T00:46:25;6.63;;;1.58;;
23155;SDS011;11746;50.876;4.246;2022-11-04T00:48:51;3.60;;;1.48;;
23155;SDS011;11746;50.876;4.246;2022-11-04T00:51:17;4.53;;;1.10;;
23155;SDS011;11746;50.876;4.246;2022-11-04T00:53:43;4.82;;;1.38;;
23155;SDS011;11746;50.876;4.246;2022-11-04T00:56:09;9.18;;;1.23;;
23155;SDS011;11746;50.876;4.246;2022-11-04T00:58:35;5.13;;;1.17;;
23155;SDS011;11746;50.876;4.246;2022-11-04T01:01:08;4.53;;;1.30;;
23155;SDS011;11746;50.876;4.246;2022-11-04T01:03:37;8.98;;;1.77;;
23155;SDS011;11746;50.876;4.246;2022-11-04T01:06:04;6.85;;;1.90;;
23155;SDS011;11746;50.876;4.246;2022-11-04T01:08:30;7.65;;;1.73;;
23155;SDS011;11746;50.876;4.246;2022-11-04T01:11:06;3.97;;;1.63;;
23155;SDS011;11746;50.876;4.246;2022-11-04T01:13:33;10.02;;;2.17;;
23155;SDS011;11746;50.876;4.246;2022-11-04T01:15:59;7.13;;;1.67;;
23155;SDS011;11746;50.876;4.246;2022-11-04T01:18:32;5.88;;;1.80;;
23155;SDS011;11746;50.876;4.246;2022-11-04T01:20:59;9.00;;;1.77;;
23155;SDS011;11746;50.876;4.246;2022-11-04T01:23:31;7.30;;;1.70;;
23155;SDS011;11746;50.876;4.246;2022-11-04T01:25:58;8.90;;;1.73;;
23155;SDS011;11746;50.876;4.246;2022-11-04T01:28:26;5.88;;;1.40;;
23155;SDS011;11746;50.876;4.246;2022-11-04T01:30:53;7.45;;;1.70;;
23155;SDS011;11746;50.876;4.246;2022-11-04T01:33:21;9.07;;;1.38;;
23155;SDS011;11746;50.876;4.246;2022-11-04T01:35:50;6.38;;;1.50;;
23155;SDS011;11746;50.876;4.246;2022-11-04T01:38:16;6.88;;;1.90;;
23155;SDS011;11746;50.876;4.246;2022-11-04T01:40:42;4.70;;;1.48;;
23155;SDS011;11746;50.876;4.246;2022-11-04T01:43:14;7.13;;;1.55;;
23155;SDS011;11746;50.876;4.246;2022-11-04T01:45:47;6.88;;;1.50;;
23155;SDS011;11746;50.876;4.246;2022-11-04T01:48:32;8.55;;;1.88;;
23155;SDS011;11746;50.876;4.246;2022-11-04T01:51:02;6.18;;;1.63;;
23155;SDS011;11746;50.876;4.246;2022-11-04T01:53:32;13.23;;;1.88;;
23155;SDS011;11746;50.876;4.246;2022-11-04T01:56:01;10.05;;;1.80;;
23155;SDS011;11746;50.876;4.246;2022-11-04T01:58:36;8.63;;;1.77;;
23155;SDS011;11746;50.876;4.246;2022-11-04T02:01:05;8.75;;;1.67;;
23155;SDS011;11746;50.876;4.246;2022-11-04T02:03:38;5.82;;;1.23;;
23155;SDS011;11746;50.876;4.246;2022-11-04T02:06:16;8.07;;;1.50;;
23155;SDS011;11746;50.876;4.246;2022-11-04T02:08:44;4.30;;;1.15;;
23155;SDS011;11746;50.876;4.246;2022-11-04T02:11:11;8.82;;;1.70;;
23155;SDS011;11746;50.876;4.246;2022-11-04T02:13:56;7.07;;;1.85;;
23155;SDS011;11746;50.876;4.246;2022-11-04T02:16:27;7.50;;;1.25;;
23155;SDS011;11746;50.876;4.246;2022-11-04T02:27:17;5.32;;;1.65;;
23155;SDS011;11746;50.876;4.246;2022-11-04T02:40:52;7.75;;;1.70;;
23155;SDS011;11746;50.876;4.246;2022-11-04T02:43:41;9.70;;;1.98;;
23155;SDS011;11746;50.876;4.246;2022-11-04T02:46:23;8.07;;;2.15;;
23155;SDS011;11746;50.876;4.246;2022-11-04T02:49:09;5.97;;;1.80;;
23155;SDS011;11746;50.876;4.246;2022-11-04T02:54:14;7.80;;;1.92;;
23155;SDS011;11746;50.876;4.246;2022-11-04T02:56:50;9.10;;;2.70;;
23155;SDS011;11746;50.876;4.246;2022-11-04T02:59:22;8.30;;;2.60;;
23155;SDS011;11746;50.876;4.246;2022-11-04T03:01:54;5.63;;;2.22;;
23155;SDS011;11746;50.876;4.246;2022-11-04T03:04:26;6.15;;;2.60;;
23155;SDS011;11746;50.876;4.246;2022-11-04T03:06:56;13.52;;;2.50;;
23155;SDS011;11746;50.876;4.246;2022-11-04T03:09:27;6.75;;;2.35;;
23155;SDS011;11746;50.876;4.246;2022-11-04T03:11:56;9.77;;;2.67;;
23155;SDS011;11746;50.876;4.246;2022-11-04T03:14:37;8.70;;;2.55;;
23155;SDS011;11746;50.876;4.246;2022-11-04T03:17:16;5.65;;;2.42;;
23155;SDS011;11746;50.876;4.246;2022-11-04T03:20:08;8.95;;;2.40;;
23155;SDS011;11746;50.876;4.246;2022-11-04T03:22:40;5.53;;;2.40;;
23155;SDS011;11746;50.876;4.246;2022-11-04T03:25:07;6.60;;;2.55;;
23155;SDS011;11746;50.876;4.246;2022-11-04T03:27:38;6.32;;;2.28;;
23155;SDS011;11746;50.876;4.246;2022-11-04T03:30:23;10.48;;;2.75;;
23155;SDS011;11746;50.876;4.246;2022-11-04T03:35:31;6.40;;;2.47;;
23155;SDS011;11746;50.876;4.246;2022-11-04T03:37:57;7.90;;;2.45;;
23155;SDS011;11746;50.876;4.246;2022-11-04T03:40:24;8.43;;;2.63;;
23155;SDS011;11746;50.876;4.246;2022-11-04T03:42:54;6.53;;;2.67;;
23155;SDS011;11746;50.876;4.246;2022-11-04T03:45:28;8.07;;;2.70;;
23155;SDS011;11746;50.876;4.246;2022-11-04T03:47:55;7.57;;;2.40;;
23155;SDS011;11746;50.876;4.246;2022-11-04T03:50:32;9.13;;;2.38;;
23155;SDS011;11746;50.876;4.246;2022-11-04T03:53:07;9.43;;;2.58;;
23155;SDS011;11746;50.876;4.246;2022-11-04T03:55:41;6.80;;;3.08;;
23155;SDS011;11746;50.876;4.246;2022-11-04T04:01:04;8.40;;;2.30;;
23155;SDS011;11746;50.876;4.246;2022-11-04T04:04:07;6.85;;;2.42;;
23155;SDS011;11746;50.876;4.246;2022-11-04T04:06:41;7.97;;;2.70;;
23155;SDS011;11746;50.876;4.246;2022-11-04T04:12:13;8.85;;;2.20;;
23155;SDS011;11746;50.876;4.246;2022-11-04T04:15:14;7.80;;;1.92;;
23155;SDS011;11746;50.876;4.246;2022-11-04T04:17:47;5.45;;;1.90;;
23155;SDS011;11746;50.876;4.246;2022-11-04T04:20:19;7.20;;;2.17;;
23155;SDS011;11746;50.876;4.246;2022-11-04T04:25:49;6.82;;;2.03;;
23155;SDS011;11746;50.876;4.246;2022-11-04T04:28:36;9.02;;;2.10;;
23155;SDS011;11746;50.876;4.246;2022-11-04T04:31:02;11.05;;;2.55;;
23155;SDS011;11746;50.876;4.246;2022-11-04T04:33:28;7.22;;;2.25;;
23155;SDS011;11746;50.876;4.246;2022-11-04T04:35:55;7.53;;;2.03;;
23155;SDS011;11746;50.876;4.246;2022-11-04T04:41:17;12.73;;;2.45;;
23155;SDS011;11746;50.876;4.246;2022-11-04T04:44:12;8.80;;;2.50;;
23155;SDS011;11746;50.876;4.246;2022-11-04T04:47:05;5.18;;;2.28;;
23155;SDS011;11746;50.876;4.246;2022-11-04T04:49:44;9.52;;;2.15;;
23155;SDS011;11746;50.876;4.246;2022-11-04T04:52:17;8.07;;;2.17;;
23155;SDS011;11746;50.876;4.246;2022-11-04T04:54:47;7.25;;;1.98;;
23155;SDS011;11746;50.876;4.246;2022-11-04T04:57:13;8.93;;;2.92;;
23155;SDS011;11746;50.876;4.246;2022-11-04T04:59:39;8.15;;;1.92;;
23155;SDS011;11746;50.876;4.246;2022-11-04T05:02:07;8.27;;;1.67;;
23155;SDS011;11746;50.876;4.246;2022-11-04T05:04:33;5.10;;;2.00;;
23155;SDS011;11746;50.876;4.246;2022-11-04T05:06:59;8.82;;;2.20;;
23155;SDS011;11746;50.876;4.246;2022-11-04T05:09:25;5.85;;;2.85;;
23155;SDS011;11746;50.876;4.246;2022-11-04T05:11:51;7.25;;;1.70;;
23155;SDS011;11746;50.876;4.246;2022-11-04T05:14:22;7.63;;;2.78;;
23155;SDS011;11746;50.876;4.246;2022-11-04T05:16:48;11.05;;;2.28;;
23155;SDS011;11746;50.876;4.246;2022-11-04T05:19:16;8.07;;;2.45;;
23155;SDS011;11746;50.876;4.246;2022-11-04T05:21:47;8.55;;;1.83;;
23155;SDS011;11746;50.876;4.246;2022-11-04T05:24:12;7.32;;;2.08;;
23155;SDS011;11746;50.876;4.246;2022-11-04T05:26:41;6.50;;;2.03;;
23155;SDS011;11746;50.876;4.246;2022-11-04T05:29:07;6.68;;;1.92;;
23155;SDS011;11746;50.876;4.246;2022-11-04T05:31:33;6.20;;;2.35;;
23155;SDS011;11746;50.876;4.246;2022-11-04T05:33:59;5.57;;;1.80;;
23155;SDS011;11746;50.876;4.246;2022-11-04T05:36:29;9.68;;;2.15;;
23155;SDS011;11746;50.876;4.246;2022-11-04T05:38:59;11.20;;;1.75;;
23155;SDS011;11746;50.876;4.246;2022-11-04T05:41:29;6.75;;;2.05;;
23155;SDS011;11746;50.876;4.246;2022-11-04T05:44:02;7.00;;;2.45;;
23155;SDS011;11746;50.876;4.246;2022-11-04T05:46:29;7.20;;;2.08;;
23155;SDS011;11746;50.876;4.246;2022-11-04T05:48:55;7.03;;;2.47;;
23155;SDS011;11746;50.876;4.246;2022-11-04T05:51:25;10.38;;;2.20;;
23155;SDS011;11746;50.876;4.246;2022-11-04T05:53:55;6.55;;;2.30;;
23155;SDS011;11746;50.876;4.246;2022-11-04T05:56:21;8.48;;;2.25;;
23155;SDS011;11746;50.876;4.246;2022-11-04T05:58:47;6.45;;;2.22;;
23155;SDS011;11746;50.876;4.246;2022-11-04T06:03:51;6.38;;;2.08;;
23155;SDS011;11746;50.876;4.246;2022-11-04T06:06:19;4.65;;;2.13;;
23155;SDS011;11746;50.876;4.246;2022-11-04T06:08:46;6.68;;;2.45;;
23155;SDS011;11746;50.876;4.246;2022-11-04T06:11:14;8.38;;;2.05;;
23155;SDS011;11746;50.876;4.246;2022-11-04T06:13:41;6.85;;;1.83;;
23155;SDS011;11746;50.876;4.246;2022-11-04T06:16:06;8.75;;;2.13;;
23155;SDS011;11746;50.876;4.246;2022-11-04T06:18:32;6.28;;;2.40;;
23155;SDS011;11746;50.876;4.246;2022-11-04T06:23:43;8.52;;;1.98;;
23155;SDS011;11746;50.876;4.246;2022-11-04T06:26:09;9.43;;;2.50;;
23155;SDS011;11746;50.876;4.246;2022-11-04T06:28:36;6.55;;;2.22;;
23155;SDS011;11746;50.876;4.246;2022-11-04T06:31:03;10.90;;;2.25;;
23155;SDS011;11746;50.876;4.246;2022-11-04T06:33:32;6.78;;;1.88;;
23155;SDS011;11746;50.876;4.246;2022-11-04T06:35:59;10.05;;;2.20;;
23155;SDS011;11746;50.876;4.246;2022-11-04T06:38:28;9.75;;;1.90;;
23155;SDS011;11746;50.876;4.246;2022-11-04T06:40:55;5.57;;;1.80;;
23155;SDS011;11746;50.876;4.246;2022-11-04T06:43:21;6.65;;;2.10;;
23155;SDS011;11746;50.876;4.246;2022-11-04T06:45:57;6.40;;;1.65;;
23155;SDS011;11746;50.876;4.246;2022-11-04T06:48:28;5.53;;;1.90;;
23155;SDS011;11746;50.876;4.246;2022-11-04T06:51:00;5.82;;;2.10;;
23155;SDS011;11746;50.876;4.246;2022-11-04T06:53:26;7.22;;;1.90;;
23155;SDS011;11746;50.876;4.246;2022-11-04T06:55:53;5.43;;;1.73;;
23155;SDS011;11746;50.876;4.246;2022-11-04T06:58:25;6.53;;;1.90;;
23155;SDS011;11746;50.876;4.246;2022-11-04T07:00:51;6.30;;;2.00;;
23155;SDS011;11746;50.876;4.246;2022-11-04T07:03:18;5.47;;;2.13;;
23155;SDS011;11746;50.876;4.246;2022-11-04T07:05:46;5.95;;;1.90;;
23155;SDS011;11746;50.876;4.246;2022-11-04T07:08:12;5.80;;;1.70;;
23155;SDS011;11746;50.876;4.246;2022-11-04T07:10:38;5.65;;;2.13;;
23155;SDS011;11746;50.876;4.246;2022-11-04T07:13:04;7.55;;;2.10;;
23155;SDS011;11746;50.876;4.246;2022-11-04T07:15:33;5.47;;;2.38;;
23155;SDS011;11746;50.876;4.246;2022-11-04T07:17:59;5.72;;;2.25;;
23155;SDS011;11746;50.876;4.246;2022-11-04T07:20:27;8.18;;;1.88;;
23155;SDS011;11746;50.876;4.246;2022-11-04T07:22:54;11.32;;;2.47;;
23155;SDS011;11746;50.876;4.246;2022-11-04T07:25:20;9.02;;;2.20;;
23155;SDS011;11746;50.876;4.246;2022-11-04T07:27:45;5.28;;;2.22;;
23155;SDS011;11746;50.876;4.246;2022-11-04T07:30:16;9.38;;;2.20;;
23155;SDS011;11746;50.876;4.246;2022-11-04T07:32:45;7.93;;;2.10;;
23155;SDS011;11746;50.876;4.246;2022-11-04T07:35:11;7.85;;;2.17;;
23155;SDS011;11746;50.876;4.246;2022-11-04T07:37:39;7.90;;;2.30;;
23155;SDS011;11746;50.876;4.246;2022-11-04T07:40:07;7.72;;;2.30;;
23155;SDS011;11746;50.876;4.246;2022-11-04T07:42:36;7.60;;;2.00;;
23155;SDS011;11746;50.876;4.246;2022-11-04T07:45:04;8.52;;;2.20;;
23155;SDS011;11746;50.876;4.246;2022-11-04T07:47:31;8.38;;;2.45;;
23155;SDS011;11746;50.876;4.246;2022-11-04T07:49:57;8.75;;;2.30;;
23155;SDS011;11746;50.876;4.246;2022-11-04T07:52:25;6.63;;;2.35;;
23155;SDS011;11746;50.876;4.246;2022-11-04T07:54:51;10.07;;;2.45;;
23155;SDS011;11746;50.876;4.246;2022-11-04T07:57:17;7.63;;;2.10;;
23155;SDS011;11746;50.876;4.246;2022-11-04T07:59:44;7.93;;;2.30;;
23155;SDS011;11746;50.876;4.246;2022-11-04T08:02:10;9.50;;;2.47;;
23155;SDS011;11746;50.876;4.246;2022-11-04T08:04:36;8.02;;;2.10;;
23155;SDS011;11746;50.876;4.246;2022-11-04T08:07:06;10.40;;;2.53;;
23155;SDS011;11746;50.876;4.246;2022-11-04T08:09:34;7.68;;;1.92;;
23155;SDS011;11746;50.876;4.246;2022-11-04T08:12:00;8.90;;;2.05;;
23155;SDS011;11746;50.876;4.246;2022-11-04T08:14:30;7.55;;;1.83;;
23155;SDS011;11746;50.876;4.246;2022-11-04T08:16:57;7.80;;;2.00;;
23155;SDS011;11746;50.876;4.246;2022-11-04T08:19:22;7.53;;;1.80;;
23155;SDS011;11746;50.876;4.246;2022-11-04T08:21:51;8.88;;;1.77;;
23155;SDS011;11746;50.876;4.246;2022-11-04T08:24:17;8.88;;;1.95;;
23155;SDS011;11746;50.876;4.246;2022-11-04T08:26:43;6.47;;;1.80;;
23155;SDS011;11746;50.876;4.246;2022-11-04T08:29:10;8.07;;;1.63;;
23155;SDS011;11746;50.876;4.246;2022-11-04T08:31:36;8.40;;;2.60;;
23155;SDS011;11746;50.876;4.246;2022-11-04T08:34:02;10.52;;;3.20;;
23155;SDS011;11746;50.876;4.246;2022-11-04T08:36:31;5.03;;;2.03;;
23155;SDS011;11746;50.876;4.246;2022-11-04T08:39:01;12.20;;;6.35;;
23155;SDS011;11746;50.876;4.246;2022-11-04T08:41:31;11.73;;;5.25;;
23155;SDS011;11746;50.876;4.246;2022-11-04T08:43:58;41.17;;;26.00;;
23155;SDS011;11746;50.876;4.246;2022-11-04T08:46:28;11.13;;;6.13;;
23155;SDS011;11746;50.876;4.246;2022-11-04T08:48:57;11.43;;;4.50;;
23155;SDS011;11746;50.876;4.246;2022-11-04T08:51:24;10.23;;;4.10;;
23155;SDS011;11746;50.876;4.246;2022-11-04T08:53:53;7.05;;;3.60;;
23155;SDS011;11746;50.876;4.246;2022-11-04T08:56:20;10.13;;;4.55;;
23155;SDS011;11746;50.876;4.246;2022-11-04T08:58:51;9.02;;;2.83;;
23155;SDS011;11746;50.876;4.246;2022-11-04T09:01:20;8.88;;;3.35;;
23155;SDS011;11746;50.876;4.246;2022-11-04T09:03:49;9.45;;;2.13;;
23155;SDS011;11746;50.876;4.246;2022-11-04T09:06:19;10.77;;;2.75;;
23155;SDS011;11746;50.876;4.246;2022-11-04T09:08:47;8.70;;;2.47;;
23155;SDS011;11746;50.876;4.246;2022-11-04T09:11:15;6.47;;;2.38;;
23155;SDS011;11746;50.876;4.246;2022-11-04T09:13:43;10.05;;;2.10;;
23155;SDS011;11746;50.876;4.246;2022-11-04T09:16:10;9.35;;;2.47;;
23155;SDS011;11746;50.876;4.246;2022-11-04T09:18:37;6.63;;;1.90;;
23155;SDS011;11746;50.876;4.246;2022-11-04T09:21:07;8.15;;;2.20;;
23155;SDS011;11746;50.876;4.246;2022-11-04T09:23:34;8.82;;;2.03;;
23155;SDS011;11746;50.876;4.246;2022-11-04T09:26:07;7.28;;;2.38;;
23155;SDS011;11746;50.876;4.246;2022-11-04T09:31:05;8.73;;;2.20;;
23155;SDS011;11746;50.876;4.246;2022-11-04T09:33:39;9.77;;;2.55;;
23155;SDS011;11746;50.876;4.246;2022-11-04T09:36:07;10.65;;;2.28;;
23155;SDS011;11746;50.876;4.246;2022-11-04T09:38:37;8.52;;;2.03;;
23155;SDS011;11746;50.876;4.246;2022-11-04T09:46:47;7.00;;;2.20;;
23155;SDS011;11746;50.876;4.246;2022-11-04T09:49:15;11.75;;;2.40;;
23155;SDS011;11746;50.876;4.246;2022-11-04T09:51:41;12.40;;;2.50;;
23155;SDS011;11746;50.876;4.246;2022-11-04T09:56:46;9.85;;;2.47;;
23155;SDS011;11746;50.876;4.246;2022-11-04T09:59:16;10.68;;;3.60;;
23155;SDS011;11746;50.876;4.246;2022-11-04T10:15:16;10.90;;;2.88;;
23155;SDS011;11746;50.876;4.246;2022-11-04T10:28:46;10.83;;;3.93;;
23155;SDS011;11746;50.876;4.246;2022-11-04T10:31:18;12.70;;;4.10;;
23155;SDS011;11746;50.876;4.246;2022-11-04T10:33:51;13.57;;;3.95;;
23155;SDS011;11746;50.876;4.246;2022-11-04T10:36:22;14.45;;;4.32;;
23155;SDS011;11746;50.876;4.246;2022-11-04T10:38:51;9.40;;;4.53;;
23155;SDS011;11746;50.876;4.246;2022-11-04T10:43:56;22.35;;;14.65;;
23155;SDS011;11746;50.876;4.246;2022-11-04T10:52:09;12.90;;;7.03;;
23155;SDS011;11746;50.876;4.246;2022-11-04T10:54:39;11.65;;;6.00;;
23155;SDS011;11746;50.876;4.246;2022-11-04T10:57:16;10.18;;;5.72;;
23155;SDS011;11746;50.876;4.246;2022-11-04T10:59:55;14.25;;;6.25;;
23155;SDS011;11746;50.876;4.246;2022-11-04T11:05:14;14.70;;;6.90;;
23155;SDS011;11746;50.876;4.246;2022-11-04T11:07:48;12.35;;;6.72;;
23155;SDS011;11746;50.876;4.246;2022-11-04T11:16:03;14.32;;;7.03;;
23155;SDS011;11746;50.876;4.246;2022-11-04T11:18:31;17.90;;;7.88;;
23155;SDS011;11746;50.876;4.246;2022-11-04T11:26:06;12.60;;;6.25;;
23155;SDS011;11746;50.876;4.246;2022-11-04T11:28:34;15.52;;;6.65;;
23155;SDS011;11746;50.876;4.246;2022-11-04T11:31:07;13.82;;;6.43;;
23155;SDS011;11746;50.876;4.246;2022-11-04T11:33:48;15.70;;;6.70;;
23155;SDS011;11746;50.876;4.246;2022-11-04T11:36:18;11.38;;;6.15;;
23155;SDS011;11746;50.876;4.246;2022-11-04T11:38:54;11.85;;;6.25;;
23155;SDS011;11746;50.876;4.246;2022-11-04T11:41:56;13.40;;;6.60;;
23155;SDS011;11746;50.876;4.246;2022-11-04T11:47:04;13.13;;;6.45;;
23155;SDS011;11746;50.876;4.246;2022-11-04T11:49:32;11.75;;;7.35;;
23155;SDS011;11746;50.876;4.246;2022-11-04T11:54:48;12.35;;;7.65;;
23155;SDS011;11746;50.876;4.246;2022-11-04T11:57:25;14.52;;;6.38;;
23155;SDS011;11746;50.876;4.246;2022-11-04T11:59:56;9.55;;;5.00;;
23155;SDS011;11746;50.876;4.246;2022-11-04T12:05:24;12.10;;;5.38;;
23155;SDS011;11746;50.876;4.246;2022-11-04T12:22:43;10.57;;;7.22;;
23155;SDS011;11746;50.876;4.246;2022-11-04T12:25:37;10.45;;;5.30;;
23155;SDS011;11746;50.876;4.246;2022-11-04T12:33:39;11.32;;;5.63;;
23155;SDS011;11746;50.876;4.246;2022-11-04T12:36:35;11.02;;;5.30;;
23155;SDS011;11746;50.876;4.246;2022-11-04T12:44:45;11.38;;;4.93;;
23155;SDS011;11746;50.876;4.246;2022-11-04T12:47:34;7.93;;;5.05;;
23155;SDS011;11746;50.876;4.246;2022-11-04T12:50:16;10.95;;;5.93;;
23155;SDS011;11746;50.876;4.246;2022-11-04T12:58:38;10.75;;;7.47;;
23155;SDS011;11746;50.876;4.246;2022-11-04T13:04:02;13.00;;;6.45;;
23155;SDS011;11746;50.876;4.246;2022-11-04T13:06:49;12.40;;;7.20;;
23155;SDS011;11746;50.876;4.246;2022-11-04T13:09:28;11.68;;;7.70;;
23155;SDS011;11746;50.876;4.246;2022-11-04T13:12:08;11.68;;;8.20;;
23155;SDS011;11746;50.876;4.246;2022-11-04T13:17:17;15.60;;;8.13;;
23155;SDS011;11746;50.876;4.246;2022-11-04T13:19:47;11.63;;;7.68;;
23155;SDS011;11746;50.876;4.246;2022-11-04T13:22:17;15.13;;;8.18;;
23155;SDS011;11746;50.876;4.246;2022-11-04T13:25:06;11.27;;;8.07;;
23155;SDS011;11746;50.876;4.246;2022-11-04T13:27:37;10.77;;;7.47;;
23155;SDS011;11746;50.876;4.246;2022-11-04T13:35:38;12.05;;;7.25;;
23155;SDS011;11746;50.876;4.246;2022-11-04T13:38:22;12.00;;;5.95;;
23155;SDS011;11746;50.876;4.246;2022-11-04T13:41:06;10.50;;;5.82;;
23155;SDS011;11746;50.876;4.246;2022-11-04T13:43:53;7.72;;;5.57;;
23155;SDS011;11746;50.876;4.246;2022-11-04T13:46:26;12.00;;;5.63;;
23155;SDS011;11746;50.876;4.246;2022-11-04T13:49:02;13.63;;;5.18;;
23155;SDS011;11746;50.876;4.246;2022-11-04T13:51:44;7.90;;;4.78;;
23155;SDS011;11746;50.876;4.246;2022-11-04T13:54:22;11.95;;;4.75;;
23155;SDS011;11746;50.876;4.246;2022-11-04T13:57:18;11.90;;;5.35;;
23155;SDS011;11746;50.876;4.246;2022-11-04T14:02:52;9.57;;;4.80;;
23155;SDS011;11746;50.876;4.246;2022-11-04T14:16:36;2.45;;;0.75;;
23155;SDS011;11746;50.876;4.246;2022-11-04T14:19:46;1.55;;;0.70;;
23155;SDS011;11746;50.876;4.246;2022-11-04T14:22:20;1.67;;;0.93;;
23155;SDS011;11746;50.876;4.246;2022-11-04T14:24:53;7.38;;;2.33;;
23155;SDS011;11746;50.876;4.246;2022-11-04T14:27:24;5.45;;;3.50;;
23155;SDS011;11746;50.876;4.246;2022-11-04T14:30:04;4.60;;;3.05;;
23155;SDS011;11746;50.876;4.246;2022-11-04T14:32:33;8.18;;;7.13;;
23155;SDS011;11746;50.876;4.246;2022-11-04T14:35:04;2.55;;;1.08;;
23155;SDS011;11746;50.876;4.246;2022-11-04T14:37:34;1.20;;;0.50;;
23155;SDS011;11746;50.876;4.246;2022-11-04T14:40:03;2.90;;;0.95;;
23155;SDS011;11746;50.876;4.246;2022-11-04T14:45:15;1.38;;;0.57;;
23155;SDS011;11746;50.876;4.246;2022-11-04T14:47:51;1.85;;;0.70;;
23155;SDS011;11746;50.876;4.246;2022-11-04T14:50:22;1.08;;;0.35;;
23155;SDS011;11746;50.876;4.246;2022-11-04T14:52:54;3.28;;;0.80;;
23155;SDS011;11746;50.876;4.246;2022-11-04T14:55:27;2.50;;;0.70;;
23155;SDS011;11746;50.876;4.246;2022-11-04T14:57:55;1.45;;;0.63;;
23155;SDS011;11746;50.876;4.246;2022-11-04T15:03:15;2.58;;;0.70;;
23155;SDS011;11746;50.876;4.246;2022-11-04T15:05:48;1.50;;;0.45;;
23155;SDS011;11746;50.876;4.246;2022-11-04T15:13:45;2.00;;;1.27;;
23155;SDS011;11746;50.876;4.246;2022-11-04T15:16:34;3.47;;;1.70;;
23155;SDS011;11746;50.876;4.246;2022-11-04T15:18:59;2.88;;;1.70;;
23155;SDS011;11746;50.876;4.246;2022-11-04T15:21:25;3.30;;;2.17;;
23155;SDS011;11746;50.876;4.246;2022-11-04T15:23:53;2.80;;;1.23;;
23155;SDS011;11746;50.876;4.246;2022-11-04T15:26:28;5.72;;;2.22;;
23155;SDS011;11746;50.876;4.246;2022-11-04T15:31:24;3.05;;;0.90;;
23155;SDS011;11746;50.876;4.246;2022-11-04T15:33:52;2.88;;;1.00;;
23155;SDS011;11746;50.876;4.246;2022-11-04T15:36:36;2.38;;;1.00;;
23155;SDS011;11746;50.876;4.246;2022-11-04T15:41:45;4.38;;;1.25;;
23155;SDS011;11746;50.876;4.246;2022-11-04T15:44:31;4.50;;;1.33;;
23155;SDS011;11746;50.876;4.246;2022-11-04T15:47:00;8.88;;;1.38;;
23155;SDS011;11746;50.876;4.246;2022-11-04T15:49:28;4.47;;;1.23;;
23155;SDS011;11746;50.876;4.246;2022-11-04T15:52:10;2.75;;;1.10;;
23155;SDS011;11746;50.876;4.246;2022-11-04T15:54:40;4.38;;;1.20;;
23155;SDS011;11746;50.876;4.246;2022-11-04T16:02:28;6.35;;;1.80;;
23155;SDS011;11746;50.876;4.246;2022-11-04T16:07:29;7.18;;;3.08;;
23155;SDS011;11746;50.876;4.246;2022-11-04T16:10:00;11.25;;;6.63;;
23155;SDS011;11746;50.876;4.246;2022-11-04T16:12:33;6.50;;;3.40;;
23155;SDS011;11746;50.876;4.246;2022-11-04T16:15:00;5.82;;;2.20;;
23155;SDS011;11746;50.876;4.246;2022-11-04T16:17:28;3.35;;;1.45;;
23155;SDS011;11746;50.876;4.246;2022-11-04T16:20:05;5.22;;;1.38;;
23155;SDS011;11746;50.876;4.246;2022-11-04T16:22:45;5.07;;;1.20;;
23155;SDS011;11746;50.876;4.246;2022-11-04T16:25:18;5.43;;;1.90;;
23155;SDS011;11746;50.876;4.246;2022-11-04T16:27:49;6.22;;;2.03;;
23155;SDS011;11746;50.876;4.246;2022-11-04T16:30:18;4.53;;;1.60;;
23155;SDS011;11746;50.876;4.246;2022-11-04T16:37:54;6.10;;;2.10;;
23155;SDS011;11746;50.876;4.246;2022-11-04T16:40:24;4.60;;;1.90;;
23155;SDS011;11746;50.876;4.246;2022-11-04T16:42:50;5.38;;;2.00;;
23155;SDS011;11746;50.876;4.246;2022-11-04T16:45:25;4.40;;;1.70;;
23155;SDS011;11746;50.876;4.246;2022-11-04T16:47:55;2.08;;;1.33;;
23155;SDS011;11746;50.876;4.246;2022-11-04T16:50:23;5.28;;;1.70;;
23155;SDS011;11746;50.876;4.246;2022-11-04T16:52:52;6.88;;;2.25;;
23155;SDS011;11746;50.876;4.246;2022-11-04T16:55:18;6.65;;;2.55;;
23155;SDS011;11746;50.876;4.246;2022-11-04T16:57:57;5.72;;;1.92;;
23155;SDS011;11746;50.876;4.246;2022-11-04T17:00:26;5.80;;;2.28;;
23155;SDS011;11746;50.876;4.246;2022-11-04T17:02:55;4.95;;;2.42;;
23155;SDS011;11746;50.876;4.246;2022-11-04T17:05:21;5.00;;;2.22;;
23155;SDS011;11746;50.876;4.246;2022-11-04T17:07:47;5.00;;;2.53;;
23155;SDS011;11746;50.876;4.246;2022-11-04T17:10:16;6.45;;;2.53;;
23155;SDS011;11746;50.876;4.246;2022-11-04T17:12:43;8.85;;;2.15;;
23155;SDS011;11746;50.876;4.246;2022-11-04T17:15:12;5.32;;;2.08;;
23155;SDS011;11746;50.876;4.246;2022-11-04T17:17:42;5.88;;;2.00;;
23155;SDS011;11746;50.876;4.246;2022-11-04T17:20:12;4.45;;;1.92;;
23155;SDS011;11746;50.876;4.246;2022-11-04T17:22:39;4.82;;;1.92;;
23155;SDS011;11746;50.876;4.246;2022-11-04T17:25:12;3.83;;;1.80;;
23155;SDS011;11746;50.876;4.246;2022-11-04T17:27:44;3.90;;;1.80;;
23155;SDS011;11746;50.876;4.246;2022-11-04T17:30:09;3.83;;;1.90;;
23155;SDS011;11746;50.876;4.246;2022-11-04T17:32:41;5.15;;;2.30;;
23155;SDS011;11746;50.876;4.246;2022-11-04T17:35:10;3.55;;;2.05;;
23155;SDS011;11746;50.876;4.246;2022-11-04T17:37:36;4.88;;;2.15;;
23155;SDS011;11746;50.876;4.246;2022-11-04T17:40:04;3.97;;;1.85;;
23155;SDS011;11746;50.876;4.246;2022-11-04T17:42:31;5.53;;;2.00;;
23155;SDS011;11746;50.876;4.246;2022-11-04T17:45:15;4.63;;;2.15;;
23155;SDS011;11746;50.876;4.246;2022-11-04T17:47:41;4.05;;;2.22;;
23155;SDS011;11746;50.876;4.246;2022-11-04T17:50:07;9.18;;;3.28;;
23155;SDS011;11746;50.876;4.246;2022-11-04T17:52:34;6.47;;;3.08;;
23155;SDS011;11746;50.876;4.246;2022-11-04T17:55:03;9.75;;;3.60;;
23155;SDS011;11746;50.876;4.246;2022-11-04T17:57:29;9.10;;;3.70;;
23155;SDS011;11746;50.876;4.246;2022-11-04T17:59:57;5.90;;;3.58;;
23155;SDS011;11746;50.876;4.246;2022-11-04T18:02:23;8.25;;;3.97;;
23155;SDS011;11746;50.876;4.246;2022-11-04T18:04:51;10.07;;;4.32;;
23155;SDS011;11746;50.876;4.246;2022-11-04T18:07:21;10.70;;;4.70;;
23155;SDS011;11746;50.876;4.246;2022-11-04T18:09:47;7.63;;;3.70;;
23155;SDS011;11746;50.876;4.246;2022-11-04T18:12:13;8.77;;;4.50;;
23155;SDS011;11746;50.876;4.246;2022-11-04T18:14:58;9.32;;;5.13;;
23155;SDS011;11746;50.876;4.246;2022-11-04T18:17:24;8.80;;;4.20;;
23155;SDS011;11746;50.876;4.246;2022-11-04T18:19:50;8.02;;;4.53;;
23155;SDS011;11746;50.876;4.246;2022-11-04T18:22:16;8.95;;;5.28;;
23155;SDS011;11746;50.876;4.246;2022-11-04T18:24:44;9.27;;;4.13;;